Allentown, Arizona
Current Conditions -  °F | °C
As of 12:53 PM on Saturday 25 Oct 2014 (Local Time) from KRQE Reporting Station
Clear Clear  
Wind Chill: 74°   Ceiling: Unl
Heat Index: 74°   Visibility: 10mi
Dew Point: 36°   Wind: 16mph
Humidity: 25%   Direction: 220°SW
Pressure: 30.35"   Gusts: NA
Location:  35.2918°N, 109.157°W
Report Text: KRQE 251853Z AUTO 22014KT 10SM CLR 23/02 A3035 RMK AO2 SLP189 T02330022 TSNO
Loading
Personal Weather Stations






























Interactive Weather Map
Tropical Storm Tracking
New forecast layout! Learn more

10-Day Weather Forecast

Advertisements
Track Severe Weather on mobile